This is the latest recevied weather packets stored in our database for station/object W1RCY. If no packets are shown the sender has not sent any weather packets the latest 10 day(s).
| Time | Temp. | Humidity | Pressure | Rain* | Wind** | Luminosity | Snow |
|---|---|---|---|---|---|---|---|
| 1778005447 | 26.67° C | 39% | 1003.7 hPa | 0 mm | - | 219 W/m² | - |
| 1778005143 | 26.11° C | 40% | 1003.7 hPa | 0 mm | - | 252 W/m² | - |
| 1778004841 | 27.22° C | 39% | 1003.9 hPa | 0 mm | - | 751 W/m² | - |
| 1778004537 | 27.22° C | 38% | 1004 hPa | 0 mm | - | 189 W/m² | - |
| 1778004234 | 26.67° C | 39% | 1004 hPa | 0 mm | - | 742 W/m² | - |
| 1778003930 | 26.67° C | 40% | 1003.8 hPa | 0 mm | - | 301 W/m² | - |
| 1778003627 | 26.67° C | 40% | 1004 hPa | 0 mm | - | 565 W/m² | - |
| 1778003323 | 26.11° C | 42% | 1004 hPa | 0 mm | - | 428 W/m² | - |
| 1778003021 | 25.56° C | 46% | 1004.3 hPa | 0 mm | - | 274 W/m² | - |
| 1778002717 | 26.11° C | 43% | 1004.2 hPa | 0 mm | - | 294 W/m² | - |
| 1778002414 | 26.11° C | 44% | 1004.3 hPa | 0 mm | - | 733 W/m² | - |
| 1778002111 | 25.56° C | 45% | 1004.2 hPa | 0 mm | - | 732 W/m² | - |
| 1778001809 | 25.56° C | 44% | 1004.5 hPa | 0 mm | - | 626 W/m² | - |
| 1778001508 | 25.56° C | 45% | 1004.4 hPa | 0 mm | - | 636 W/m² | - |
| 1778001205 | 25.56° C | 45% | 1004.4 hPa | 0 mm | - | 657 W/m² | - |
| 1778000901 | 25.56° C | 44% | 1004.6 hPa | 0 mm | - | 654 W/m² | - |
| 1778000598 | 25.56° C | 44% | 1004.7 hPa | 0 mm | - | 650 W/m² | - |
| 1778000294 | 25.56° C | 44% | 1004.8 hPa | 0 mm | - | 707 W/m² | - |
| 1777999990 | 25° C | 45% | 1004.8 hPa | 0 mm | - | 688 W/m² | - |
| 1777999685 | 25.56° C | 47% | 1005.2 hPa | 0 mm | - | 656 W/m² | - |
| 1777999383 | 25.56° C | 45% | 1005.1 hPa | 0 mm | - | 758 W/m² | - |
| 1777999081 | 25° C | 46% | 1005.3 hPa | 0 mm | - | 737 W/m² | - |
| 1777998779 | 24.44° C | 47% | 1005.5 hPa | 0 mm | - | 674 W/m² | - |
| 1777998476 | 24.44° C | 48% | 1005.9 hPa | 0 mm | - | 700 W/m² | - |
| 1777998173 | 24.44° C | 47% | 1006.1 hPa | 0 mm | - | 692 W/m² | - |
* Rain latest hour (hover to see other rain measurements)
** Current wind speed in m/s (hover to see current wind gust speed)